createdAt,value
2022-10-30T00:00:53.932Z,8.37
2022-10-30T00:03:22.288Z,13.57
2022-10-30T00:05:52.908Z,9.77
2022-10-30T00:08:22.896Z,9.30
2022-10-30T00:10:51.453Z,11.03
2022-10-30T00:13:20.238Z,12.57
2022-10-30T00:15:50.067Z,13.90
2022-10-30T00:18:20.531Z,11.60
2022-10-30T00:20:49.054Z,12.97
2022-10-30T00:23:17.662Z,12.10
2022-10-30T00:25:45.985Z,11.90
2022-10-30T00:28:14.324Z,12.47
2022-10-30T00:30:42.630Z,11.20
2022-10-30T00:33:10.889Z,12.67
2022-10-30T00:35:40.696Z,11.80
2022-10-30T00:38:11.934Z,12.73
2022-10-30T00:40:40.319Z,12.70
2022-10-30T00:43:28.469Z,11.30
2022-10-30T00:45:59.857Z,11.97
2022-10-30T00:48:28.352Z,12.37
2022-10-30T00:51:00.589Z,16.03
2022-10-30T00:53:30.530Z,11.90
2022-10-30T00:56:02.993Z,12.07
2022-10-30T00:58:40.938Z,11.57
2022-10-30T01:01:15.985Z,10.73
2022-10-30T01:03:46.181Z,11.93
2022-10-30T01:06:18.239Z,14.67
2022-10-30T01:08:48.676Z,11.23
2022-10-30T01:11:17.079Z,9.27
2022-10-30T01:13:48.375Z,12.60
2022-10-30T01:16:44.488Z,10.70
2022-10-30T01:19:26.905Z,12.00
2022-10-30T01:22:20.323Z,15.53
2022-10-30T01:24:59.464Z,11.73
2022-10-30T01:27:37.004Z,10.43
2022-10-30T01:30:17.862Z,11.87
2022-10-30T01:33:04.772Z,12.33
2022-10-30T01:35:39.656Z,13.53
2022-10-30T01:38:13.741Z,8.67
2022-10-30T01:40:42.049Z,12.93
2022-10-30T01:43:11.424Z,10.30
2022-10-30T01:45:56.090Z,13.97
2022-10-30T01:48:43.397Z,14.13
2022-10-30T01:51:22.605Z,12.43
2022-10-30T01:54:04.157Z,10.30
2022-10-30T01:56:39.231Z,13.57
2022-10-30T01:59:14.760Z,11.33
2022-10-30T02:01:43.602Z,10.77
2022-10-30T02:04:14.464Z,14.10
2022-10-30T02:06:43.398Z,16.77
2022-10-30T02:09:16.067Z,11.93
2022-10-30T02:11:49.638Z,9.97
2022-10-30T02:14:22.789Z,14.77
2022-10-30T02:16:54.193Z,12.20
2022-10-30T02:19:22.539Z,13.63
2022-10-30T02:21:52.792Z,12.30
2022-10-30T02:24:21.455Z,13.53
2022-10-30T02:26:49.785Z,10.37
2022-10-30T02:29:20.786Z,17.63
2022-10-30T02:31:49.090Z,12.83
2022-10-30T02:34:17.537Z,10.87
2022-10-30T02:36:45.820Z,12.30
2022-10-30T02:39:15.480Z,15.50
2022-10-30T02:41:44.016Z,13.53
2022-10-30T02:44:13.834Z,13.07
2022-10-30T02:46:42.226Z,13.53
2022-10-30T02:49:10.583Z,15.37
2022-10-30T02:51:38.893Z,10.77
2022-10-30T02:54:07.296Z,13.23
2022-10-30T02:56:37.039Z,12.23
2022-10-30T02:59:05.297Z,12.90
2022-10-30T03:01:33.726Z,12.67
2022-10-30T03:04:02.347Z,15.90
2022-10-30T03:06:30.691Z,11.70
2022-10-30T03:08:59.788Z,9.70
2022-10-30T03:11:28.311Z,12.17
2022-10-30T03:13:58.418Z,10.40
2022-10-30T03:16:29.539Z,10.67
2022-10-30T03:18:59.013Z,14.53
2022-10-30T03:21:29.088Z,14.33
2022-10-30T03:23:57.881Z,20.47
2022-10-30T03:26:26.062Z,14.57
2022-10-30T03:29:07.692Z,15.83
2022-10-30T03:31:35.978Z,12.53
2022-10-30T03:34:33.516Z,11.13
2022-10-30T03:37:06.643Z,12.37
2022-10-30T03:39:35.406Z,11.23
2022-10-30T03:42:04.617Z,9.70
2022-10-30T03:44:34.329Z,11.63
2022-10-30T03:47:04.107Z,15.53
2022-10-30T03:49:39.916Z,11.30
2022-10-30T03:52:12.324Z,11.63
2022-10-30T03:54:40.574Z,11.43
2022-10-30T03:57:09.711Z,12.97
2022-10-30T03:59:47.503Z,10.00
2022-10-30T04:02:31.080Z,10.83
2022-10-30T04:04:59.398Z,15.97
2022-10-30T04:07:27.587Z,13.33
2022-10-30T04:09:55.952Z,14.83
2022-10-30T04:12:24.273Z,11.57
2022-10-30T04:14:54.426Z,10.07
2022-10-30T04:17:22.858Z,14.50
2022-10-30T04:19:51.087Z,10.00
2022-10-30T04:22:19.419Z,11.37
2022-10-30T04:24:49.197Z,10.70
2022-10-30T04:27:17.979Z,10.93
2022-10-30T04:29:46.883Z,11.77
2022-10-30T04:32:16.577Z,14.33
2022-10-30T04:34:44.859Z,17.07
2022-10-30T04:37:13.166Z,11.20
2022-10-30T04:39:45.456Z,12.67
2022-10-30T04:42:20.648Z,10.47
2022-10-30T04:44:49.010Z,13.97
2022-10-30T04:47:19.725Z,13.07
2022-10-30T04:49:48.060Z,13.40
2022-10-30T04:52:16.361Z,14.77
2022-10-30T04:54:45.152Z,15.63
2022-10-30T04:57:13.774Z,12.07
2022-10-30T04:59:43.967Z,13.63
2022-10-30T05:02:12.318Z,11.67
2022-10-30T05:04:42.179Z,15.93
2022-10-30T05:07:10.471Z,8.30
2022-10-30T05:09:38.792Z,13.50
2022-10-30T05:12:08.026Z,10.13
2022-10-30T05:14:44.406Z,11.23
2022-10-30T05:17:12.729Z,11.73
2022-10-30T05:19:42.469Z,12.83
2022-10-30T05:22:10.987Z,9.63
2022-10-30T05:24:39.288Z,12.23
2022-10-30T05:27:08.090Z,12.03
2022-10-30T05:29:37.060Z,13.90
2022-10-30T05:32:06.224Z,10.13
2022-10-30T05:34:45.338Z,12.67
2022-10-30T05:37:15.312Z,11.33
2022-10-30T05:39:44.567Z,11.43
2022-10-30T05:42:30.944Z,13.53
2022-10-30T05:45:02.838Z,11.07
2022-10-30T05:47:35.536Z,11.60
2022-10-30T05:50:05.844Z,10.30
2022-10-30T05:52:34.074Z,12.73
2022-10-30T05:55:04.173Z,10.77
2022-10-30T05:57:45.826Z,12.87
2022-10-30T06:00:15.512Z,11.60
2022-10-30T06:02:43.855Z,10.47
2022-10-30T06:05:15.624Z,13.13
2022-10-30T06:07:44.438Z,10.17
2022-10-30T06:10:12.747Z,12.90
2022-10-30T06:13:05.902Z,9.17
2022-10-30T06:15:52.116Z,13.23
2022-10-30T06:18:20.908Z,9.80
2022-10-30T06:20:56.011Z,12.43
2022-10-30T06:23:37.068Z,10.30
2022-10-30T06:26:10.271Z,12.27
2022-10-30T06:28:45.244Z,9.40
2022-10-30T06:31:15.370Z,14.73
2022-10-30T06:33:43.663Z,10.80
2022-10-30T06:36:15.000Z,9.60
2022-10-30T06:38:43.809Z,11.27
2022-10-30T06:41:13.665Z,12.13
2022-10-30T06:43:54.832Z,9.93
2022-10-30T06:46:29.004Z,11.03
2022-10-30T06:49:01.187Z,10.60
2022-10-30T06:51:33.018Z,10.23
2022-10-30T06:54:01.925Z,8.23
2022-10-30T06:56:42.260Z,9.07
2022-10-30T06:59:29.273Z,11.27
2022-10-30T07:02:12.061Z,8.90
2022-10-30T07:04:46.836Z,9.63
2022-10-30T07:07:17.414Z,10.57
2022-10-30T07:09:46.672Z,12.50
2022-10-30T07:12:16.897Z,10.73
2022-10-30T07:15:14.587Z,10.90
2022-10-30T07:17:58.664Z,13.23
2022-10-30T07:20:29.922Z,11.83
2022-10-30T07:23:00.223Z,15.00
2022-10-30T07:25:29.037Z,13.07
2022-10-30T07:28:06.425Z,14.43
2022-10-30T07:30:50.137Z,12.73
2022-10-30T07:33:37.221Z,10.47
2022-10-30T07:36:19.786Z,8.77
2022-10-30T07:38:55.637Z,10.13
2022-10-30T07:41:32.127Z,13.60
2022-10-30T07:44:20.724Z,10.87
2022-10-30T07:46:57.112Z,11.40
2022-10-30T07:49:44.185Z,13.63
2022-10-30T07:52:17.289Z,12.50
2022-10-30T07:54:49.518Z,11.57
2022-10-30T07:57:46.707Z,18.30
2022-10-30T08:00:33.983Z,15.37
2022-10-30T08:03:15.861Z,15.37
2022-10-30T08:05:52.038Z,18.27
2022-10-30T08:08:43.332Z,17.20
2022-10-30T08:11:33.524Z,14.47
2022-10-30T08:14:02.410Z,16.33
2022-10-30T08:16:31.059Z,13.27
2022-10-30T08:18:59.648Z,16.10
2022-10-30T08:21:29.005Z,15.33
2022-10-30T08:24:14.259Z,12.93
2022-10-30T08:26:47.646Z,13.50
2022-10-30T08:29:15.948Z,15.90
2022-10-30T08:31:45.784Z,11.33
2022-10-30T08:34:14.031Z,15.00
2022-10-30T08:36:50.111Z,12.07
2022-10-30T08:39:18.854Z,17.13
2022-10-30T08:42:11.596Z,11.53
2022-10-30T08:44:44.795Z,18.97
2022-10-30T08:47:18.841Z,13.30
2022-10-30T08:49:47.909Z,14.37
2022-10-30T08:52:19.208Z,11.87
2022-10-30T08:54:52.760Z,12.47
2022-10-30T08:57:22.470Z,11.33
2022-10-30T08:59:53.277Z,11.17
2022-10-30T09:02:45.595Z,9.57
2022-10-30T09:05:32.738Z,14.37
2022-10-30T09:08:24.194Z,12.67
2022-10-30T09:11:07.910Z,8.07
2022-10-30T09:13:37.811Z,11.87
2022-10-30T09:16:08.225Z,10.97
2022-10-30T09:18:38.622Z,12.47
2022-10-30T09:21:07.366Z,10.93
2022-10-30T09:23:44.878Z,10.97
2022-10-30T09:26:31.688Z,9.00
2022-10-30T09:29:07.423Z,14.50
2022-10-30T09:31:47.816Z,10.07
2022-10-30T09:34:20.705Z,9.53
2022-10-30T09:37:21.084Z,11.63
2022-10-30T09:39:52.779Z,14.97
2022-10-30T09:42:41.706Z,9.97
2022-10-30T09:45:48.687Z,9.37
2022-10-30T09:48:47.971Z,10.20
2022-10-30T09:51:49.621Z,13.63
2022-10-30T09:54:30.283Z,12.87
2022-10-30T09:57:05.487Z,14.13
2022-10-30T09:59:47.666Z,14.97
2022-10-30T10:02:28.604Z,9.23
2022-10-30T10:05:02.031Z,12.80
2022-10-30T10:07:51.287Z,9.73
2022-10-30T10:10:41.045Z,11.17
2022-10-30T10:13:28.307Z,8.57
2022-10-30T10:16:00.500Z,9.07
2022-10-30T10:18:36.282Z,9.60
2022-10-30T10:21:10.579Z,9.17
2022-10-30T10:23:48.452Z,7.47
2022-10-30T10:26:45.529Z,16.17
2022-10-30T10:29:36.483Z,11.87
2022-10-30T10:32:34.389Z,8.90
2022-10-30T10:35:38.834Z,11.37
2022-10-30T10:38:15.916Z,11.87
2022-10-30T10:40:55.422Z,9.33
2022-10-30T10:43:37.189Z,10.87
2022-10-30T10:46:25.472Z,11.27
2022-10-30T10:49:07.370Z,11.47
2022-10-30T10:51:40.912Z,12.93
2022-10-30T10:54:15.533Z,14.27
2022-10-30T10:56:48.170Z,11.27
2022-10-30T10:59:20.241Z,15.10
2022-10-30T11:01:55.548Z,9.60
2022-10-30T11:04:32.091Z,13.10
2022-10-30T11:07:20.418Z,12.77
2022-10-30T11:09:52.831Z,13.33
2022-10-30T11:12:24.152Z,11.37
2022-10-30T11:14:52.450Z,16.00
2022-10-30T11:17:25.584Z,13.40
2022-10-30T11:20:07.013Z,11.57
2022-10-30T11:22:41.450Z,12.03
2022-10-30T11:25:25.315Z,16.87
2022-10-30T11:27:59.003Z,16.20
2022-10-30T11:30:29.079Z,16.23
2022-10-30T11:32:58.537Z,13.27
2022-10-30T11:35:27.550Z,12.45
2022-10-30T11:38:15.337Z,12.00
2022-10-30T11:40:48.513Z,16.57
2022-10-30T11:43:23.804Z,14.27
2022-10-30T11:45:52.989Z,10.77
2022-10-30T11:48:28.442Z,13.82
2022-10-30T11:51:00.757Z,13.45
2022-10-30T11:53:36.569Z,8.98
2022-10-30T11:56:14.079Z,15.18
2022-10-30T11:58:47.341Z,14.13
2022-10-30T12:01:22.487Z,12.77
2022-10-30T12:03:51.012Z,16.58
2022-10-30T12:06:21.161Z,12.23
2022-10-30T12:09:06.164Z,12.98
2022-10-30T12:11:36.096Z,15.52
2022-10-30T12:14:05.263Z,17.83
2022-10-30T12:16:34.405Z,14.98
2022-10-30T12:19:05.156Z,11.77
2022-10-30T12:21:39.124Z,17.52
2022-10-30T12:24:18.026Z,11.52
2022-10-30T12:26:49.354Z,14.35
2022-10-30T12:29:20.867Z,10.60
2022-10-30T12:31:57.006Z,14.07
2022-10-30T12:34:34.921Z,8.57
2022-10-30T12:37:10.748Z,12.80
2022-10-30T12:39:59.830Z,12.35
2022-10-30T12:42:29.056Z,13.98
2022-10-30T12:45:14.319Z,15.88
2022-10-30T12:47:48.165Z,20.35
2022-10-30T12:50:23.714Z,17.10
2022-10-30T12:52:59.521Z,12.52
2022-10-30T12:55:35.564Z,12.30
2022-10-30T12:58:12.241Z,13.10
2022-10-30T13:00:47.218Z,15.10
2022-10-30T13:03:26.050Z,18.75
2022-10-30T13:05:57.167Z,17.48
2022-10-30T13:08:33.339Z,15.57
2022-10-30T13:11:10.473Z,9.18
2022-10-30T13:13:42.490Z,15.07
2022-10-30T13:16:17.354Z,16.77
2022-10-30T13:18:45.669Z,13.52
2022-10-30T13:21:25.455Z,16.00
2022-10-30T13:23:59.869Z,12.68
2022-10-30T13:26:37.642Z,12.38
2022-10-30T13:29:17.642Z,15.50
2022-10-30T13:31:56.988Z,13.60
2022-10-30T13:34:35.568Z,16.05
2022-10-30T13:37:09.795Z,16.30
2022-10-30T13:39:43.656Z,11.90
2022-10-30T13:42:40.944Z,15.10
2022-10-30T13:45:27.560Z,15.15
2022-10-30T13:48:06.095Z,16.52
2022-10-30T13:50:48.400Z,16.30
2022-10-30T13:53:21.091Z,19.30
2022-10-30T13:55:50.308Z,13.60
2022-10-30T13:58:25.419Z,11.30
2022-10-30T14:01:04.784Z,11.38
2022-10-30T14:03:44.762Z,18.40
2022-10-30T14:06:20.412Z,16.08
2022-10-30T14:08:58.610Z,16.80
2022-10-30T14:11:26.989Z,15.23
2022-10-30T14:13:57.958Z,11.63
2022-10-30T14:16:36.180Z,15.15
2022-10-30T14:19:06.318Z,13.55
2022-10-30T14:21:51.736Z,13.85
2022-10-30T14:24:22.845Z,13.15
2022-10-30T14:26:53.904Z,17.85
2022-10-30T14:29:43.784Z,14.27
2022-10-30T14:32:35.983Z,12.48
2022-10-30T14:35:23.906Z,12.48
2022-10-30T14:37:58.987Z,12.43
2022-10-30T14:40:41.482Z,11.80
2022-10-30T14:43:19.702Z,15.23
2022-10-30T14:45:57.942Z,11.40
2022-10-30T14:48:34.512Z,18.90
2022-10-30T14:51:10.653Z,19.35
2022-10-30T14:53:56.956Z,11.52
2022-10-30T14:56:32.814Z,14.50
2022-10-30T14:59:21.399Z,17.92
2022-10-30T15:02:01.286Z,10.52
2022-10-30T15:04:43.789Z,15.43
2022-10-30T15:07:23.995Z,14.70
2022-10-30T15:10:05.964Z,10.43
2022-10-30T15:12:43.518Z,12.50
2022-10-30T15:15:15.219Z,13.07
2022-10-30T15:17:47.381Z,14.23
2022-10-30T15:20:19.604Z,15.33
2022-10-30T15:22:50.977Z,13.03
2022-10-30T15:25:22.121Z,15.88
2022-10-30T15:27:54.532Z,13.70
2022-10-30T15:30:25.033Z,12.95
2022-10-30T15:32:54.736Z,17.05
2022-10-30T15:35:26.080Z,12.90
2022-10-30T15:38:02.945Z,12.95
2022-10-30T15:40:31.936Z,15.30
2022-10-30T15:43:02.878Z,11.02
2022-10-30T15:45:35.286Z,15.53
2022-10-30T15:48:09.307Z,12.77
2022-10-30T15:50:40.980Z,11.90
2022-10-30T15:53:19.040Z,13.03
2022-10-30T15:55:48.517Z,15.60
2022-10-30T15:58:22.886Z,10.43
2022-10-30T16:00:57.940Z,15.43
2022-10-30T16:03:28.092Z,13.27
2022-10-30T16:06:08.674Z,16.17
2022-10-30T16:08:45.176Z,15.90
2022-10-30T16:11:14.049Z,18.93
2022-10-30T16:13:43.053Z,17.17
2022-10-30T16:16:17.947Z,13.50
2022-10-30T16:18:47.895Z,20.30
2022-10-30T16:21:19.419Z,11.80
2022-10-30T16:23:53.019Z,11.00
2022-10-30T16:26:30.206Z,19.40
2022-10-30T16:29:00.143Z,18.77
2022-10-30T16:31:35.579Z,14.00
2022-10-30T16:34:12.375Z,13.67
2022-10-30T16:36:42.214Z,14.33
2022-10-30T16:39:16.411Z,11.90
2022-10-30T16:41:45.237Z,13.27
2022-10-30T16:44:20.247Z,15.83
2022-10-30T16:46:52.126Z,16.93
2022-10-30T16:49:24.928Z,12.73
2022-10-30T16:51:59.288Z,11.80
2022-10-30T16:54:31.092Z,10.90
2022-10-30T16:57:01.374Z,12.70
2022-10-30T16:59:34.047Z,16.30
2022-10-30T17:02:07.277Z,14.23
2022-10-30T17:04:37.453Z,12.63
2022-10-30T17:07:18.837Z,13.90
2022-10-30T17:09:49.083Z,15.37
2022-10-30T17:12:21.658Z,10.90
2022-10-30T17:14:56.149Z,14.47
2022-10-30T17:17:31.034Z,11.23
2022-10-30T17:20:04.075Z,11.87
2022-10-30T17:22:32.654Z,11.80
2022-10-30T17:25:01.431Z,13.83
2022-10-30T17:27:43.577Z,11.47
2022-10-30T17:30:34.877Z,16.17
2022-10-30T17:33:04.468Z,10.77
2022-10-30T17:35:35.512Z,9.90
2022-10-30T17:38:04.049Z,15.43
2022-10-30T17:40:32.656Z,14.70
2022-10-30T17:43:01.057Z,13.93
2022-10-30T17:45:29.449Z,11.30
2022-10-30T17:47:57.989Z,6.77
2022-10-30T17:50:26.554Z,13.67
2022-10-30T17:52:56.443Z,11.90
2022-10-30T17:55:29.668Z,14.93
2022-10-30T17:57:57.870Z,16.37
2022-10-30T18:00:26.107Z,14.57
2022-10-30T18:02:54.398Z,12.83
2022-10-30T18:05:26.730Z,11.90
2022-10-30T18:07:56.453Z,10.83
2022-10-30T18:10:24.728Z,17.03
2022-10-30T18:12:53.065Z,9.30
2022-10-30T18:15:29.083Z,15.93
2022-10-30T18:17:57.944Z,13.53
2022-10-30T18:20:26.495Z,12.90
2022-10-30T18:22:56.824Z,14.07
2022-10-30T18:25:27.676Z,15.63
2022-10-30T18:27:56.905Z,12.63
2022-10-30T18:30:25.665Z,15.67
2022-10-30T18:32:53.960Z,14.33
2022-10-30T18:35:30.042Z,11.83
2022-10-30T18:37:59.946Z,10.53
2022-10-30T18:40:28.518Z,11.80
2022-10-30T18:42:57.367Z,12.33
2022-10-30T18:45:27.473Z,14.13
2022-10-30T18:47:57.861Z,11.37
2022-10-30T18:50:26.519Z,12.40
2022-10-30T18:52:55.282Z,12.83
2022-10-30T18:55:27.335Z,14.30
2022-10-30T18:57:55.648Z,12.30
2022-10-30T19:00:25.897Z,16.73
2022-10-30T19:02:54.869Z,13.20
2022-10-30T19:05:33.599Z,13.07
2022-10-30T19:08:04.194Z,10.17
2022-10-30T19:10:36.377Z,11.20
2022-10-30T19:13:13.382Z,13.93
2022-10-30T19:15:43.435Z,11.90
2022-10-30T19:18:13.372Z,15.53
2022-10-30T19:21:03.397Z,11.20
2022-10-30T19:23:30.065Z,10.97
2022-10-30T19:25:59.813Z,11.03
2022-10-30T19:28:30.076Z,9.47
2022-10-30T19:30:58.323Z,13.10
2022-10-30T19:33:26.894Z,9.37
2022-10-30T19:35:56.064Z,9.37
2022-10-30T19:38:24.691Z,13.60
2022-10-30T19:40:53.203Z,12.90
2022-10-30T19:43:22.897Z,10.70
2022-10-30T19:45:55.658Z,13.37
2022-10-30T19:48:55.555Z,10.00
2022-10-30T19:51:13.871Z,11.10
2022-10-30T19:53:42.333Z,14.17
2022-10-30T19:56:12.254Z,9.70
2022-10-30T19:58:41.902Z,11.00
2022-10-30T20:01:11.385Z,15.07
2022-10-30T20:03:39.599Z,9.63
2022-10-30T20:06:08.383Z,14.03
2022-10-30T20:08:36.611Z,14.23
2022-10-30T20:11:04.915Z,11.03
2022-10-30T20:13:33.773Z,11.67
2022-10-30T20:16:05.274Z,12.67
2022-10-30T20:18:36.145Z,14.87
2022-10-30T20:21:08.572Z,9.93
2022-10-30T20:23:37.556Z,10.53
2022-10-30T20:26:08.152Z,9.80
2022-10-30T20:28:38.567Z,9.27
2022-10-30T20:31:09.917Z,9.93
2022-10-30T20:33:38.299Z,11.33
2022-10-30T20:36:07.299Z,8.80
2022-10-30T20:38:36.183Z,10.27
2022-10-30T20:41:05.951Z,12.50
2022-10-30T20:43:36.327Z,13.13
2022-10-30T20:46:06.207Z,11.53
2022-10-30T20:48:38.042Z,13.00
2022-10-30T20:51:06.871Z,11.03
2022-10-30T20:53:35.761Z,9.90
2022-10-30T20:56:04.668Z,9.90
2022-10-30T20:58:32.892Z,16.07
2022-10-30T21:01:01.224Z,15.07
2022-10-30T21:03:29.689Z,12.47
2022-10-30T21:06:00.816Z,12.73
2022-10-30T21:08:31.613Z,9.83
2022-10-30T21:11:00.984Z,16.27
2022-10-30T21:13:29.783Z,13.60
2022-10-30T21:16:02.142Z,10.40
2022-10-30T21:18:30.672Z,10.17
2022-10-30T21:21:02.889Z,15.00
2022-10-30T21:23:31.413Z,15.73
2022-10-30T21:26:03.387Z,9.33
2022-10-30T21:28:32.718Z,15.90
2022-10-30T21:31:03.271Z,14.90
2022-10-30T21:33:32.301Z,18.50
2022-10-30T21:36:12.016Z,11.77
2022-10-30T21:38:43.025Z,11.10
2022-10-30T21:41:12.439Z,11.50
2022-10-30T21:43:40.979Z,12.93
2022-10-30T21:46:10.445Z,12.10
2022-10-30T21:48:39.030Z,12.97
2022-10-30T21:51:11.456Z,12.40
2022-10-30T21:53:40.676Z,13.63
2022-10-30T21:56:11.969Z,14.13
2022-10-30T21:58:40.616Z,10.53
2022-10-30T22:01:15.096Z,9.03
2022-10-30T22:03:43.572Z,12.27
2022-10-30T22:06:14.922Z,12.87
2022-10-30T22:08:46.616Z,14.63
2022-10-30T22:11:15.499Z,13.90
2022-10-30T22:13:44.006Z,11.27
2022-10-30T22:16:15.056Z,11.87
2022-10-30T22:18:43.421Z,11.37
2022-10-30T22:21:14.336Z,11.27
2022-10-30T22:23:43.510Z,11.57
2022-10-30T22:26:14.631Z,14.13
2022-10-30T22:28:43.904Z,16.97
2022-10-30T22:31:14.321Z,30.57
2022-10-30T22:33:43.548Z,21.87
2022-10-30T22:36:16.501Z,13.63
2022-10-30T22:38:46.088Z,18.37
2022-10-30T22:41:16.623Z,28.23
2022-10-30T22:43:46.738Z,29.83
2022-10-30T22:46:17.850Z,26.33
2022-10-30T22:48:46.607Z,33.30
2022-10-30T22:51:17.832Z,25.73
2022-10-30T22:53:47.245Z,24.20
2022-10-30T22:56:17.673Z,41.40
2022-10-30T22:58:46.851Z,29.23
2022-10-30T23:01:18.499Z,36.80
2022-10-30T23:03:47.214Z,30.13
2022-10-30T23:06:17.009Z,32.53
2022-10-30T23:08:45.290Z,36.60
2022-10-30T23:11:14.189Z,31.27
2022-10-30T23:13:42.810Z,27.50
2022-10-30T23:16:15.112Z,31.40
2022-10-30T23:18:43.427Z,35.37
2022-10-30T23:21:14.951Z,26.17
2022-10-30T23:23:45.364Z,34.03
2022-10-30T23:26:15.794Z,29.47
2022-10-30T23:28:44.360Z,25.03
2022-10-30T23:31:18.833Z,26.57
2022-10-30T23:33:48.064Z,29.10
2022-10-30T23:36:17.368Z,24.87
2022-10-30T23:38:51.433Z,23.50
2022-10-30T23:41:19.726Z,20.67
2022-10-30T23:43:48.071Z,22.13
2022-10-30T23:46:16.274Z,20.37
2022-10-30T23:48:44.477Z,33.13
2022-10-30T23:51:12.820Z,29.07
2022-10-30T23:53:41.142Z,23.80
2022-10-30T23:56:11.314Z,25.77
2022-10-30T23:58:39.508Z,29.77
